Cocopelli — PB7752 — position and weather

sailwx.info

Track history (hours):
 
Tides and Currents Weather Stations Pressure Air Temp Water Temp Dewpoint Dewpoint Depression Visibility Wind Speed Wind Dir Waves Ship Positions

Cocopelli

Last reported at 2017-Mar-31 14:18 UTC. Time now 2017-Apr-23 05:40 UTC.
Position N 52°46' E 005°07'.
Warning: this ship's position is 22 days out of date.

Length 15 m.

Type: Sailing vessel. MMSI: 244730543.

Date/timePositionNaut miles runAvg speedWind from/ knotsBaromVisibWave heightAir tempDewpointWater temp
2017-Mar-31 14:18N 52°46' E 005°07'2 2.0
2017-Mar-31 13:30N 52°47' E 005°09'3 5.1
2017-Mar-31 13:00N 52°47' E 005°13'3 6.1
2017-Mar-31 12:30N 52°49' E 005°10'0 0.2
2017-Mar-31 12:00N 52°49' E 005°10'3 5.9
2017-Mar-31 11:30N 52°47' E 005°13'1 2.0
2017-Mar-31 11:00N 52°47' E 005°14'3 6.0
2017-Mar-31 10:30N 52°47' E 005°09'2 3.8
2017-Mar-31 10:00N 52°46' E 005°06'0 0.3
2017-Mar-31 09:30N 52°46' E 005°06'0 0.2
2017-Mar-31 09:00N 52°46' E 005°06'0 0.0
2017-Mar-31 08:30N 52°46' E 005°06'0 0.0
2017-Mar-31 08:00N 52°46' E 005°06'  
Track history (hours):
 
Tides and Currents Weather Stations Pressure Air Temp Water Temp Dewpoint Dewpoint Depression Visibility Wind Speed Wind Dir Waves Ship Positions

Cocopelli

Last reported at 2017-Mar-31 14:18 UTC. Time now 2017-Apr-23 05:40 UTC.
Position N 52°46' E 005°07'.
Warning: this ship's position is 22 days out of date.

Length 15 m.

Type: Sailing vessel. MMSI: 244730543.

Date/timePositionNaut miles runAvg speedWind from/ knotsBaromVisibWave heightAir tempDewpointWater temp
2017-Mar-31 14:18N 52°46' E 005°07'2 2.0
2017-Mar-31 13:30N 52°47' E 005°09'3 5.1
2017-Mar-31 13:00N 52°47' E 005°13'3 6.1
2017-Mar-31 12:30N 52°49' E 005°10'0 0.2
2017-Mar-31 12:00N 52°49' E 005°10'3 5.9
2017-Mar-31 11:30N 52°47' E 005°13'1 2.0
2017-Mar-31 11:00N 52°47' E 005°14'3 6.0
2017-Mar-31 10:30N 52°47' E 005°09'2 3.8
2017-Mar-31 10:00N 52°46' E 005°06'0 0.3
2017-Mar-31 09:30N 52°46' E 005°06'0 0.2
2017-Mar-31 09:00N 52°46' E 005°06'0 0.0
2017-Mar-31 08:30N 52°46' E 005°06'0 0.0
2017-Mar-31 08:00N 52°46' E 005°06'  

Dump ship's entire track history